createdAt,value
2019-05-13T00:00:47.909Z,103678.42
2019-05-13T00:03:19.953Z,103671.05
2019-05-13T00:05:53.593Z,103669.70
2019-05-13T00:08:26.110Z,103667.05
2019-05-13T00:10:58.169Z,103665.96
2019-05-13T00:13:30.224Z,103666.45
2019-05-13T00:16:03.738Z,103646.75
2019-05-13T00:18:36.064Z,103661.44
2019-05-13T00:21:08.117Z,103663.58
2019-05-13T00:23:40.160Z,103666.63
2019-05-13T00:26:13.966Z,103667.64
2019-05-13T00:28:45.856Z,103668.93
2019-05-13T00:31:17.896Z,103666.32
2019-05-13T00:33:49.918Z,103667.21
2019-05-13T00:36:24.223Z,103669.77
2019-05-13T00:38:55.684Z,103671.66
2019-05-13T00:41:27.701Z,103670.52
2019-05-13T00:44:00.222Z,103674.04
2019-05-13T00:46:34.013Z,103674.23
2019-05-13T00:49:06.231Z,103675.56
2019-05-13T00:51:38.262Z,103675.45
2019-05-13T00:54:10.244Z,103678.81
2019-05-13T00:56:43.587Z,103677.72
2019-05-13T00:59:15.792Z,103686.65
2019-05-13T01:01:47.786Z,103683.63
2019-05-13T01:04:19.825Z,103680.78
2019-05-13T01:06:53.791Z,103679.38
2019-05-13T01:09:25.691Z,103682.23
2019-05-13T01:11:57.745Z,103683.89
2019-05-13T01:14:29.689Z,103681.72
2019-05-13T01:17:03.860Z,103683.64
2019-05-13T01:19:35.487Z,103685.06
2019-05-13T01:22:07.785Z,103686.89
2019-05-13T01:24:40.398Z,103684.70
2019-05-13T01:27:13.992Z,103688.88
2019-05-13T01:29:46.320Z,103686.92
2019-05-13T01:32:18.377Z,103683.70
2019-05-13T01:34:50.342Z,103683.56
2019-05-13T01:37:24.771Z,103692.20
2019-05-13T01:39:56.011Z,103692.51
2019-05-13T01:42:28.063Z,103686.34
2019-05-13T01:45:00.071Z,103693.92
2019-05-13T01:47:34.401Z,103695.61
2019-05-13T01:50:09.267Z,103692.78
2019-05-13T01:52:41.200Z,103692.25
2019-05-13T01:55:14.548Z,103699.34
2019-05-13T01:57:46.799Z,103697.55
2019-05-13T02:00:18.923Z,103701.09
2019-05-13T02:02:51.323Z,103700.65
2019-05-13T02:05:24.218Z,103694.53
2019-05-13T02:08:00.433Z,103695.28
2019-05-13T02:10:47.887Z,103693.78
2019-05-13T02:13:19.875Z,103703.78
2019-05-13T02:15:54.156Z,103710.92
2019-05-13T02:18:25.815Z,103706.02
2019-05-13T02:20:57.847Z,103704.91
2019-05-13T02:23:29.817Z,103708.98
2019-05-13T02:26:04.229Z,103703.14
2019-05-13T02:28:35.549Z,103709.72
2019-05-13T02:31:07.920Z,103707.81
2019-05-13T02:33:42.399Z,103709.87
2019-05-13T02:36:14.140Z,103709.91
2019-05-13T02:38:46.090Z,103715.11
2019-05-13T02:41:18.331Z,103712.17
2019-05-13T02:43:52.647Z,103710.58
2019-05-13T02:46:24.028Z,103716.56
2019-05-13T02:48:56.032Z,103714.12
2019-05-13T02:51:27.998Z,103717.74
2019-05-13T02:54:03.257Z,103715.89
2019-05-13T02:56:33.974Z,103716.98
2019-05-13T02:59:06.006Z,103713.89
2019-05-13T03:01:38.037Z,103718.03
2019-05-13T03:04:12.860Z,103720.67
2019-05-13T03:06:43.926Z,103721.91
2019-05-13T03:09:15.936Z,103719.55
2019-05-13T03:11:47.940Z,103721.30
2019-05-13T03:14:23.522Z,103695.49
2019-05-13T03:17:03.983Z,103727.38
2019-05-13T03:19:36.396Z,103728.89
2019-05-13T03:22:08.383Z,103737.09
2019-05-13T03:24:42.949Z,103738.25
2019-05-13T03:27:14.456Z,103740.53
2019-05-13T03:29:47.144Z,103740.15
2019-05-13T03:32:25.716Z,103739.00
2019-05-13T03:34:56.159Z,103716.94
2019-05-13T03:37:27.690Z,103740.59
2019-05-13T03:40:03.353Z,103744.52
2019-05-13T03:42:36.318Z,103745.88
2019-05-13T03:45:08.684Z,103748.93
2019-05-13T03:47:42.280Z,103754.09
2019-05-13T03:50:14.888Z,103754.02
2019-05-13T03:52:46.836Z,103758.78
2019-05-13T03:55:23.129Z,103756.14
2019-05-13T03:57:53.585Z,103758.20
2019-05-13T04:00:25.810Z,103755.33
2019-05-13T04:02:58.156Z,103757.47
2019-05-13T04:05:33.445Z,103756.31
2019-05-13T04:08:04.034Z,103761.28
2019-05-13T04:10:36.412Z,103758.16
2019-05-13T04:13:08.419Z,103756.15
2019-05-13T04:15:42.835Z,103756.21
2019-05-13T04:18:14.857Z,103756.73
2019-05-13T04:20:47.889Z,103733.96
2019-05-13T04:23:22.878Z,103759.82
2019-05-13T04:25:54.031Z,103758.33
2019-05-13T04:28:26.406Z,103758.75
2019-05-13T04:30:58.391Z,103757.25
2019-05-13T04:33:33.112Z,103761.13
2019-05-13T04:36:04.166Z,103760.69
2019-05-13T04:38:36.326Z,103767.37
2019-05-13T04:41:08.394Z,103766.23
2019-05-13T04:43:43.622Z,103769.27
2019-05-13T04:46:14.695Z,103769.19
2019-05-13T04:48:46.812Z,103766.31
2019-05-13T04:51:22.686Z,103763.52
2019-05-13T04:53:57.254Z,103761.38
2019-05-13T04:56:28.309Z,103762.73
2019-05-13T04:59:02.994Z,103764.17
2019-05-13T05:02:04.981Z,103768.59
2019-05-13T05:04:56.219Z,103769.09
2019-05-13T05:07:53.618Z,103772.58
2019-05-13T05:11:15.797Z,103775.58
2019-05-13T05:14:17.942Z,103779.56
2019-05-13T05:17:32.799Z,103782.34
2019-05-13T05:20:17.941Z,103777.03
2019-05-13T05:23:22.619Z,103777.56
2019-05-13T05:26:05.141Z,103779.41
2019-05-13T05:29:03.884Z,103774.80
2019-05-13T05:31:52.331Z,103776.73
2019-05-13T05:34:52.849Z,103787.23
2019-05-13T05:37:52.258Z,103782.93
2019-05-13T05:40:31.378Z,103783.36
2019-05-13T05:43:04.472Z,103780.79
2019-05-13T05:45:37.826Z,103787.67
2019-05-13T05:48:11.865Z,103784.08
2019-05-13T05:50:43.937Z,103788.59
2019-05-13T05:53:17.954Z,103795.28
2019-05-13T05:55:54.962Z,103792.15
2019-05-13T05:58:31.556Z,103792.80
2019-05-13T06:01:06.358Z,103798.92
2019-05-13T06:03:41.791Z,103797.98
2019-05-13T06:06:15.590Z,103797.30
2019-05-13T06:08:47.678Z,103800.30
2019-05-13T06:11:22.275Z,103805.00
2019-05-13T06:13:54.864Z,103798.11
2019-05-13T06:16:27.140Z,103783.53
2019-05-13T06:19:01.415Z,103802.08
2019-05-13T06:21:33.107Z,103805.23
2019-05-13T06:24:05.453Z,103816.45
2019-05-13T06:26:37.681Z,103813.95
2019-05-13T06:29:11.627Z,103818.49
2019-05-13T06:31:43.550Z,103815.11
2019-05-13T06:34:15.748Z,103812.02
2019-05-13T06:36:47.780Z,103813.30
2019-05-13T06:39:22.071Z,103818.73
2019-05-13T06:41:53.859Z,103818.98
2019-05-13T06:44:25.948Z,103823.56
2019-05-13T06:46:58.181Z,103819.79
2019-05-13T06:49:32.273Z,103821.47
2019-05-13T06:52:04.613Z,103818.47
2019-05-13T06:54:36.860Z,103820.69
2019-05-13T06:57:13.130Z,103820.91
2019-05-13T06:59:43.046Z,103824.77
2019-05-13T07:02:15.029Z,103823.31
2019-05-13T07:04:47.512Z,103822.61
2019-05-13T07:07:24.643Z,103821.27
2019-05-13T07:09:58.426Z,103818.01
2019-05-13T07:12:32.049Z,103819.66
2019-05-13T07:15:06.445Z,103813.05
2019-05-13T07:17:41.533Z,103818.80
2019-05-13T07:20:17.408Z,103825.47
2019-05-13T07:22:48.737Z,103823.12
2019-05-13T07:25:22.231Z,103829.79
2019-05-13T07:27:54.653Z,103823.00
2019-05-13T07:30:42.175Z,103828.19
2019-05-13T07:33:13.919Z,103829.38
2019-05-13T07:35:47.578Z,103829.40
2019-05-13T07:38:22.292Z,103832.03
2019-05-13T07:41:03.438Z,103827.23
2019-05-13T07:43:35.586Z,103835.36
2019-05-13T07:46:08.332Z,103836.86
2019-05-13T07:48:41.561Z,103842.30
2019-05-13T07:51:16.772Z,103837.26
2019-05-13T07:53:51.601Z,103842.39
2019-05-13T07:56:22.770Z,103845.55
2019-05-13T07:58:54.838Z,103841.06
2019-05-13T08:01:27.279Z,103845.40
2019-05-13T08:04:01.988Z,103850.88
2019-05-13T08:06:33.308Z,103853.48
2019-05-13T08:09:08.566Z,103853.68
2019-05-13T08:12:00.188Z,103847.08
2019-05-13T08:14:15.930Z,103846.87
2019-05-13T08:16:48.149Z,103844.98
2019-05-13T08:19:21.776Z,103843.23
2019-05-13T08:21:56.965Z,103844.14
2019-05-13T08:24:31.278Z,103852.58
2019-05-13T08:27:06.094Z,103852.30
2019-05-13T08:29:42.105Z,103850.68
2019-05-13T08:32:14.778Z,103850.88
2019-05-13T08:34:54.309Z,103847.75
2019-05-13T08:37:21.785Z,103855.42
2019-05-13T08:39:55.851Z,103859.97
2019-05-13T08:42:28.406Z,103847.51
2019-05-13T08:45:26.130Z,103824.59
2019-05-13T08:47:58.389Z,103865.66
2019-05-13T08:50:32.393Z,103861.24
2019-05-13T08:53:05.985Z,103862.53
2019-05-13T08:55:38.124Z,103846.80
2019-05-13T09:01:33.500Z,103869.60
2019-05-13T09:04:05.934Z,103874.84
2019-05-13T09:06:38.279Z,103878.24
2019-05-13T09:09:11.562Z,103877.55
2019-05-13T09:11:44.299Z,103874.05
2019-05-13T09:14:16.676Z,103871.33
2019-05-13T09:16:48.727Z,103878.50
2019-05-13T09:19:21.623Z,103879.59
2019-05-13T09:21:55.537Z,103875.38
2019-05-13T09:24:36.626Z,103872.74
2019-05-13T09:27:04.553Z,103876.66
2019-05-13T09:29:37.030Z,103869.48
2019-05-13T09:32:11.897Z,103869.53
2019-05-13T09:34:43.646Z,103878.45
2019-05-13T09:37:17.336Z,103874.06
2019-05-13T09:39:51.633Z,103868.53
2019-05-13T09:42:23.407Z,103870.85
2019-05-13T09:44:55.452Z,103862.84
2019-05-13T09:47:28.444Z,103872.02
2019-05-13T09:50:28.513Z,103872.55
2019-05-13T09:56:31.871Z,103872.55
2019-05-13T09:59:05.166Z,103873.91
2019-05-13T10:01:38.346Z,103874.04
2019-05-13T10:04:13.169Z,103871.48
2019-05-13T10:06:45.466Z,103868.45
2019-05-13T10:09:18.040Z,103867.25
2019-05-13T10:11:51.978Z,103869.25
2019-05-13T10:14:23.908Z,103862.98
2019-05-13T10:16:56.082Z,103861.80
2019-05-13T10:19:31.591Z,103857.41
2019-05-13T10:22:03.685Z,103866.47
2019-05-13T10:24:36.056Z,103856.94
2019-05-13T10:27:08.145Z,103861.99
2019-05-13T10:29:42.506Z,103860.38
2019-05-13T10:32:15.096Z,103855.12
2019-05-13T10:34:48.621Z,103857.70
2019-05-13T10:37:21.990Z,103855.42
2019-05-13T10:39:55.269Z,103862.48
2019-05-13T10:42:29.825Z,103864.50
2019-05-13T10:45:05.141Z,103856.25
2019-05-13T10:47:37.209Z,103864.44
2019-05-13T10:50:10.920Z,103860.20
2019-05-13T10:52:42.947Z,103863.02
2019-05-13T10:55:15.491Z,103856.63
2019-05-13T10:57:47.538Z,103864.66
2019-05-13T11:00:26.590Z,103868.73
2019-05-13T11:02:58.742Z,103863.00
2019-05-13T11:05:32.722Z,103858.98
2019-05-13T11:08:07.044Z,103866.13
2019-05-13T11:10:41.963Z,103860.66
2019-05-13T11:13:19.321Z,103860.72
2019-05-13T11:15:58.591Z,103860.21
2019-05-13T11:18:29.935Z,103856.69
2019-05-13T11:21:03.682Z,103852.09
2019-05-13T11:23:35.760Z,103858.20
2019-05-13T11:26:08.062Z,103852.21
2019-05-13T11:28:42.881Z,103859.61
2019-05-13T11:31:14.401Z,103850.84
2019-05-13T11:33:51.798Z,103842.56
2019-05-13T11:36:23.877Z,103851.91
2019-05-13T11:38:59.182Z,103837.64
2019-05-13T11:41:32.688Z,103848.31
2019-05-13T11:44:16.022Z,103860.11
2019-05-13T11:46:48.875Z,103860.52
2019-05-13T11:49:22.025Z,103850.52
2019-05-13T11:52:02.640Z,103853.92
2019-05-13T11:54:34.438Z,103860.23
2019-05-13T11:57:06.820Z,103855.59
2019-05-13T11:59:42.976Z,103844.41
2019-05-13T12:02:14.695Z,103840.11
2019-05-13T12:04:46.803Z,103850.83
2019-05-13T12:07:23.257Z,103849.42
2019-05-13T12:10:05.818Z,103855.27
2019-05-13T12:12:44.265Z,103855.70
2019-05-13T12:15:28.801Z,103860.13
2019-05-13T12:17:55.842Z,103851.11
2019-05-13T12:21:46.671Z,103850.80
2019-05-13T12:23:27.569Z,103859.48
2019-05-13T12:26:04.264Z,103851.89
2019-05-13T12:28:35.419Z,103845.28
2019-05-13T12:31:15.792Z,103846.47
2019-05-13T12:33:48.092Z,103842.55
2019-05-13T12:36:43.549Z,103764.75
2019-05-13T12:39:15.806Z,103836.64
2019-05-13T12:41:49.168Z,103834.27
2019-05-13T12:44:22.816Z,103836.28
2019-05-13T12:46:58.491Z,103839.19
2019-05-13T12:49:36.768Z,103838.38
2019-05-13T12:52:12.798Z,103830.37
2019-05-13T12:54:53.049Z,103833.34
2019-05-13T12:57:32.540Z,103831.91
2019-05-13T13:00:06.860Z,103844.27
2019-05-13T13:02:51.573Z,103820.78
2019-05-13T13:05:28.805Z,103821.20
2019-05-13T13:08:16.672Z,103815.69
2019-05-13T13:10:34.554Z,103818.91
2019-05-13T13:13:05.827Z,103814.69
2019-05-13T13:18:14.297Z,103818.80
2019-05-13T13:20:55.600Z,103814.80
2019-05-13T13:23:23.526Z,103802.72
2019-05-13T13:25:57.193Z,103803.52
2019-05-13T13:28:28.054Z,103799.36
2019-05-13T13:31:04.242Z,103802.77
2019-05-13T13:33:34.576Z,103789.73
2019-05-13T13:36:06.922Z,103805.83
2019-05-13T13:38:42.682Z,103793.34
2019-05-13T13:41:21.966Z,103790.41
2019-05-13T13:43:46.924Z,103800.09
2019-05-13T13:46:33.868Z,103791.91
2019-05-13T13:48:55.220Z,103786.84
2019-05-13T13:51:27.382Z,103798.31
2019-05-13T13:53:59.407Z,103722.20
2019-05-13T13:56:32.685Z,103779.63
2019-05-13T13:59:05.042Z,103777.25
2019-05-13T14:01:37.042Z,103772.03
2019-05-13T14:04:09.387Z,103775.98
2019-05-13T14:06:52.387Z,103814.06
2019-05-13T14:09:15.760Z,103773.06
2019-05-13T14:11:47.853Z,103767.67
2019-05-13T14:14:21.515Z,103765.05
2019-05-13T14:16:54.010Z,103757.17
2019-05-13T14:19:25.973Z,103767.37
2019-05-13T14:21:58.048Z,103757.08
2019-05-13T14:24:32.870Z,103759.22
2019-05-13T14:27:04.052Z,103746.39
2019-05-13T14:29:41.207Z,103752.97
2019-05-13T14:32:10.515Z,103750.03
2019-05-13T14:34:42.813Z,103763.02
2019-05-13T14:37:15.227Z,103747.20
2019-05-13T14:39:47.437Z,103744.67
2019-05-13T14:42:22.560Z,103754.03
2019-05-13T14:44:53.298Z,103744.64
2019-05-13T14:47:25.282Z,103739.20
2019-05-13T14:49:57.526Z,103743.59
2019-05-13T14:52:32.083Z,103742.36
2019-05-13T14:55:03.726Z,103737.52
2019-05-13T14:57:35.811Z,103739.64
2019-05-13T15:00:09.650Z,103735.83
2019-05-13T15:02:42.251Z,103722.80
2019-05-13T15:05:14.777Z,103726.23
2019-05-13T15:07:46.729Z,103725.73
2019-05-13T15:10:21.805Z,103723.30
2019-05-13T15:12:53.420Z,103728.17
2019-05-13T15:15:25.375Z,103731.24
2019-05-13T15:17:57.413Z,103720.63
2019-05-13T15:20:32.877Z,103730.98
2019-05-13T15:23:03.708Z,103721.27
2019-05-13T15:25:36.329Z,103729.94
2019-05-13T15:28:08.308Z,103726.80
2019-05-13T15:30:42.128Z,103728.89
2019-05-13T15:33:14.450Z,103735.66
2019-05-13T15:35:46.774Z,103730.10
2019-05-13T15:38:18.964Z,103739.08
2019-05-13T15:40:52.192Z,103723.73
2019-05-13T15:43:24.564Z,103728.75
2019-05-13T15:45:56.700Z,103724.17
2019-05-13T15:48:28.720Z,103725.88
2019-05-13T15:51:02.069Z,103723.92
2019-05-13T15:53:34.659Z,103729.56
2019-05-13T15:56:07.045Z,103721.92
2019-05-13T15:58:41.262Z,103723.22
2019-05-13T16:01:13.208Z,103733.02
2019-05-13T16:03:45.300Z,103726.84
2019-05-13T16:06:17.260Z,103719.61
2019-05-13T16:08:51.646Z,103724.61
2019-05-13T16:11:22.948Z,103724.35
2019-05-13T16:13:54.922Z,103718.86
2019-05-13T16:16:26.942Z,103718.88
2019-05-13T16:18:58.912Z,103714.44
2019-05-13T16:21:31.989Z,103725.64
2019-05-13T16:24:04.276Z,103709.86
2019-05-13T16:26:36.647Z,103713.58
2019-05-13T16:29:08.685Z,103714.83
2019-05-13T16:31:41.544Z,103712.49
2019-05-13T16:34:13.854Z,103707.02
2019-05-13T16:36:46.060Z,103716.22
2019-05-13T16:39:18.514Z,103717.48
2019-05-13T16:41:51.683Z,103715.09
2019-05-13T16:44:24.139Z,103715.27
2019-05-13T16:46:56.235Z,103709.29
2019-05-13T16:49:28.306Z,103715.75
2019-05-13T16:52:02.534Z,103710.31
2019-05-13T16:54:34.579Z,103712.98
2019-05-13T16:57:06.546Z,103715.44
2019-05-13T16:59:38.519Z,103709.27
2019-05-13T17:02:12.649Z,103719.15
2019-05-13T17:04:44.426Z,103715.48
2019-05-13T17:07:16.448Z,103717.94
2019-05-13T17:09:48.422Z,103715.89
2019-05-13T17:12:21.394Z,103708.98
2019-05-13T17:14:53.371Z,103709.73
2019-05-13T17:17:26.674Z,103708.85
2019-05-13T17:19:58.767Z,103706.67
2019-05-13T17:22:31.624Z,103706.89
2019-05-13T17:25:04.602Z,103705.28
2019-05-13T17:27:36.570Z,103703.52
2019-05-13T17:30:11.371Z,103700.94
2019-05-13T17:32:43.082Z,103704.37
2019-05-13T17:35:15.934Z,103705.20
2019-05-13T17:37:48.075Z,103704.11
2019-05-13T17:40:22.295Z,103643.23
2019-05-13T17:42:53.799Z,103699.34
2019-05-13T17:45:25.841Z,103713.55
2019-05-13T17:47:57.907Z,103707.39
2019-05-13T17:50:31.525Z,103711.23
2019-05-13T17:53:03.526Z,103716.12
2019-05-13T17:55:35.846Z,103655.95
2019-05-13T17:58:07.808Z,103718.02
2019-05-13T18:00:41.549Z,103718.54
2019-05-13T18:03:13.702Z,103714.73
2019-05-13T18:05:46.219Z,103709.82
2019-05-13T18:08:18.245Z,103710.52
2019-05-13T18:10:51.428Z,103711.55
2019-05-13T18:13:23.493Z,103707.20
2019-05-13T18:15:55.874Z,103713.11
2019-05-13T18:18:40.405Z,103712.98
2019-05-13T18:21:01.738Z,103708.27
2019-05-13T18:23:34.125Z,103716.08
2019-05-13T18:26:06.910Z,103713.77
2019-05-13T18:28:39.256Z,103717.22
2019-05-13T18:31:12.225Z,103715.18
2019-05-13T18:33:44.714Z,103715.05
2019-05-13T18:36:16.899Z,103715.58
2019-05-13T18:38:48.957Z,103725.27
2019-05-13T18:41:21.400Z,103741.33
2019-05-13T18:43:55.021Z,103745.02
2019-05-13T18:46:27.317Z,103738.80
2019-05-13T18:49:02.066Z,103737.98
2019-05-13T18:51:33.382Z,103750.59
2019-05-13T18:54:06.074Z,103752.86
2019-05-13T18:56:38.060Z,103764.29
2019-05-13T18:59:12.455Z,103766.83
2019-05-13T19:01:44.129Z,103706.61
2019-05-13T19:04:16.186Z,103766.75
2019-05-13T19:06:48.132Z,103764.91
2019-05-13T19:09:21.770Z,103765.23
2019-05-13T19:11:54.105Z,103767.70
2019-05-13T19:14:26.090Z,103773.69
2019-05-13T19:16:58.078Z,103777.27
2019-05-13T19:19:31.683Z,103777.61
2019-05-13T19:22:03.830Z,103772.37
2019-05-13T19:24:36.109Z,103772.08
2019-05-13T19:27:08.172Z,103767.63
2019-05-13T19:29:42.499Z,103766.98
2019-05-13T19:32:13.958Z,103770.89
2019-05-13T19:34:46.011Z,103777.69
2019-05-13T19:37:18.280Z,103778.64
2019-05-13T19:39:50.354Z,103773.37
2019-05-13T19:42:22.525Z,103780.67
2019-05-13T19:44:54.689Z,103774.68
2019-05-13T19:47:26.755Z,103778.13
2019-05-13T19:50:01.828Z,103776.47
2019-05-13T19:52:32.419Z,103712.84
2019-05-13T19:55:06.484Z,103773.28
2019-05-13T19:57:42.490Z,103778.05
2019-05-13T20:00:15.413Z,103780.95
2019-05-13T20:02:47.459Z,103779.08
2019-05-13T20:05:21.129Z,103774.91
2019-05-13T20:07:53.218Z,103784.48
2019-05-13T20:10:25.593Z,103776.79
2019-05-13T20:12:57.643Z,103782.34
2019-05-13T20:15:31.472Z,103779.65
2019-05-13T20:18:04.016Z,103769.22
2019-05-13T20:20:36.022Z,103766.58
2019-05-13T20:23:08.047Z,103773.84
2019-05-13T20:25:41.718Z,103773.92
2019-05-13T20:28:14.076Z,103777.80
2019-05-13T20:30:46.064Z,103782.98
2019-05-13T20:33:18.116Z,103777.61
2019-05-13T20:35:50.661Z,103776.25
2019-05-13T20:38:22.723Z,103777.50
2019-05-13T20:40:54.806Z,103786.23
2019-05-13T20:43:27.043Z,103784.68
2019-05-13T20:46:01.732Z,103786.38
2019-05-13T20:48:32.988Z,103790.77
2019-05-13T20:51:04.977Z,103786.95
2019-05-13T20:53:36.925Z,103785.02
2019-05-13T20:56:09.403Z,103786.59
2019-05-13T20:58:42.153Z,103786.48
2019-05-13T21:01:14.199Z,103795.39
2019-05-13T21:03:46.216Z,103796.22
2019-05-13T21:06:18.172Z,103794.03
2019-05-13T21:08:52.185Z,103795.61
2019-05-13T21:11:23.893Z,103799.70
2019-05-13T21:13:55.864Z,103798.91
2019-05-13T21:16:27.899Z,103796.00
2019-05-13T21:19:01.893Z,103802.17
2019-05-13T21:21:33.574Z,103803.42
2019-05-13T21:24:05.537Z,103800.41
2019-05-13T21:26:37.488Z,103803.08
2019-05-13T21:29:11.105Z,103801.33
2019-05-13T21:31:43.282Z,103797.88
2019-05-13T21:34:15.305Z,103734.55
2019-05-13T21:36:47.392Z,103798.47
2019-05-13T21:39:21.358Z,103800.53
2019-05-13T21:41:53.053Z,103801.47
2019-05-13T21:44:25.018Z,103803.05
2019-05-13T21:46:56.991Z,103798.72
2019-05-13T21:49:29.057Z,103798.12
2019-05-13T21:52:01.169Z,103791.24
2019-05-13T21:54:34.795Z,103794.25
2019-05-13T21:57:06.723Z,103798.45
2019-05-13T21:59:41.255Z,103795.61
2019-05-13T22:02:12.576Z,103795.64
2019-05-13T22:04:44.536Z,103799.03
2019-05-13T22:07:16.694Z,103800.48
2019-05-13T22:09:48.758Z,103793.18
2019-05-13T22:12:21.731Z,103800.44
2019-05-13T22:14:53.844Z,103800.66
2019-05-13T22:17:26.064Z,103797.67
2019-05-13T22:19:58.168Z,103800.33
2019-05-13T22:22:32.125Z,103800.94
2019-05-13T22:25:06.070Z,103798.95
2019-05-13T22:27:38.450Z,103802.84
2019-05-13T22:30:11.855Z,103802.92
2019-05-13T22:32:43.982Z,103801.81
2019-05-13T22:35:16.069Z,103805.78
2019-05-13T22:37:48.189Z,103807.75
2019-05-13T22:40:21.845Z,103804.26
2019-05-13T22:42:56.625Z,103808.08
2019-05-13T22:45:27.918Z,103804.25
2019-05-13T22:47:59.868Z,103803.42
2019-05-13T22:50:31.912Z,103805.95
2019-05-13T22:53:04.034Z,103801.56
2019-05-13T22:55:36.395Z,103802.98
2019-05-13T22:58:08.383Z,103800.94
2019-05-13T23:00:42.319Z,103792.14
2019-05-13T23:03:14.085Z,103798.77
2019-05-13T23:05:46.438Z,103799.67
2019-05-13T23:08:18.399Z,103799.91
2019-05-13T23:10:51.457Z,103793.88
2019-05-13T23:13:23.523Z,103791.07
2019-05-13T23:15:55.526Z,103784.45
2019-05-13T23:18:27.504Z,103789.03
2019-05-13T23:20:59.485Z,103797.14
2019-05-13T23:23:31.845Z,103794.76
2019-05-13T23:26:03.866Z,103793.33
2019-05-13T23:28:35.898Z,103792.98
2019-05-13T23:31:07.862Z,103793.20
2019-05-13T23:33:41.677Z,103794.75
2019-05-13T23:36:13.564Z,103795.17
2019-05-13T23:38:45.528Z,103787.46
2019-05-13T23:41:17.779Z,103792.71
2019-05-13T23:43:49.795Z,103788.84
2019-05-13T23:46:22.346Z,103797.82
2019-05-13T23:48:54.368Z,103796.34
2019-05-13T23:51:26.756Z,103797.66
2019-05-13T23:53:58.762Z,103799.32
2019-05-13T23:56:31.135Z,103810.19
2019-05-13T23:59:03.160Z,103801.50
